Time;durP1;ratioP1;P1;durP2;ratioP2;P2;SDS_P1;SDS_P2;PMS_P1;PMS_P2;Temp;Humidity;BMP_temperature;BMP_pressure;BME280_temperature;BME280_humidity;BME280_pressure;Samples;Min_cycle;Max_cycle;Signal;HPM_P1;HPM_P2
2022/06/13 00:01:15;;;;;;;7.45;3.63;;;16.30;96.20;;;;;;5028066;28;20104;-46
2022/06/13 00:03:41;;;;;;;14.93;4.03;;;16.30;96.40;;;;;;5028892;28;20030;-47
2022/06/13 00:06:08;;;;;;;8.35;3.60;;;16.30;96.40;;;;;;5028744;28;20173;-49
2022/06/13 00:08:33;;;;;;;10.48;3.80;;;16.30;96.70;;;;;;5029091;28;20068;-47
2022/06/13 00:10:59;;;;;;;6.47;3.15;;;16.30;96.60;;;;;;5028237;28;20064;-46
2022/06/13 00:13:24;;;;;;;13.68;3.47;;;16.20;96.50;;;;;;5028843;28;20064;-46
2022/06/13 00:15:50;;;;;;;10.20;3.50;;;16.20;96.30;;;;;;5028539;28;20425;-46
2022/06/13 00:18:15;;;;;;;10.25;3.95;;;16.10;96.20;;;;;;5027147;28;20537;-46
2022/06/13 00:20:41;;;;;;;13.55;3.92;;;16.10;96.30;;;;;;5027788;28;20033;-45
2022/06/13 00:23:06;;;;;;;7.63;3.90;;;16.00;96.40;;;;;;5028476;28;20091;-47
2022/06/13 00:25:32;;;;;;;8.40;3.58;;;16.00;96.60;;;;;;5028849;28;20025;-46
2022/06/13 00:27:57;;;;;;;10.32;3.42;;;15.90;96.00;;;;;;5028353;28;20061;-46
2022/06/13 00:30:23;;;;;;;9.73;3.25;;;15.90;96.40;;;;;;5027870;28;20038;-46
2022/06/13 00:32:50;;;;;;;8.10;3.83;;;15.80;96.60;;;;;;5028352;28;20021;-47
2022/06/13 00:35:16;;;;;;;8.45;3.40;;;15.80;96.90;;;;;;5026998;28;20030;-45
2022/06/13 00:37:41;;;;;;;12.23;4.13;;;15.80;96.90;;;;;;5030632;28;20111;-48
2022/06/13 00:40:08;;;;;;;9.32;3.65;;;15.70;97.20;;;;;;5030448;28;20037;-45
2022/06/13 00:42:34;;;;;;;6.38;3.20;;;15.60;97.40;;;;;;5032298;28;20025;-46
2022/06/13 00:45:11;;;;;;;9.43;3.40;;;15.60;97.70;;;;;;5030838;28;20030;-45
2022/06/13 00:47:38;;;;;;;8.75;3.88;;;15.50;97.80;;;;;;5032216;28;20021;-46
2022/06/13 00:50:07;;;;;;;10.07;4.20;;;15.40;98.00;;;;;;5030252;28;20566;-46
2022/06/13 00:52:42;;;;;;;8.48;3.83;;;15.50;97.90;;;;;;5031803;28;20030;-46
2022/06/13 00:55:12;;;;;;;9.13;4.05;;;15.40;97.90;;;;;;5032392;28;20395;-46
2022/06/13 00:57:38;;;;;;;12.82;4.30;;;15.30;97.90;;;;;;5031864;28;20030;-46
2022/06/13 01:00:11;;;;;;;13.13;3.80;;;15.30;98.00;;;;;;5030118;28;20272;-46
2022/06/13 01:02:41;;;;;;;10.70;3.60;;;15.20;97.60;;;;;;5031746;28;20308;-46
2022/06/13 01:05:08;;;;;;;7.72;3.95;;;15.20;97.20;;;;;;5031926;28;20025;-46
2022/06/13 01:07:35;;;;;;;8.90;4.07;;;15.20;97.00;;;;;;5031806;28;20033;-48
2022/06/13 01:12:47;;;;;;;12.65;3.50;;;15.30;95.90;;;;;;5031898;28;20398;-47
2022/06/13 01:15:43;;;;;;;13.77;4.25;;;15.30;95.20;;;;;;5031563;28;20030;-47
2022/06/13 01:18:41;;;;;;;9.02;3.13;;;15.30;95.30;;;;;;5031849;28;20040;-49
2022/06/13 01:21:18;;;;;;;9.70;3.30;;;15.30;94.60;;;;;;5031041;28;20053;-48
2022/06/13 01:24:12;;;;;;;8.02;3.50;;;15.40;95.10;;;;;;5031541;28;20491;-48
2022/06/13 01:26:58;;;;;;;8.63;3.92;;;15.40;94.60;;;;;;5030104;28;20040;-48
2022/06/13 01:29:39;;;;;;;9.15;3.47;;;15.40;93.90;;;;;;5031949;28;20083;-49
2022/06/13 01:32:11;;;;;;;8.73;2.85;;;15.40;94.00;;;;;;5031637;28;20045;-48
2022/06/13 01:34:48;;;;;;;10.63;3.50;;;15.40;93.80;;;;;;5031317;28;20021;-46
2022/06/13 01:37:45;;;;;;;8.25;2.45;;;15.30;93.60;;;;;;5029861;28;20025;-46
2022/06/13 01:40:18;;;;;;;6.97;2.80;;;15.30;93.20;;;;;;5029415;28;20029;-46
2022/06/13 01:43:07;;;;;;;8.00;2.95;;;15.20;92.90;;;;;;5031339;28;20037;-46
2022/06/13 01:45:45;;;;;;;11.93;3.33;;;15.20;93.10;;;;;;5011420;28;20025;-47
2022/06/13 01:48:30;;;;;;;9.40;2.80;;;15.10;92.90;;;;;;5018045;28;20025;-47
2022/06/13 01:51:16;;;;;;;8.48;2.70;;;15.00;92.80;;;;;;5020930;28;20034;-47
2022/06/13 01:54:12;;;;;;;8.88;2.80;;;15.10;93.10;;;;;;5026148;28;20082;-46
2022/06/13 01:56:54;;;;;;;13.93;3.75;;;15.00;93.30;;;;;;5028589;28;20024;-46
2022/06/13 01:59:29;;;;;;;8.60;3.55;;;15.00;93.00;;;;;;5029568;28;20025;-46
2022/06/13 02:02:04;;;;;;;8.80;2.78;;;14.90;93.30;;;;;;5028822;28;20101;-46
2022/06/13 02:04:38;;;;;;;6.25;2.97;;;14.90;93.50;;;;;;5030976;28;20383;-46
2022/06/13 02:07:25;;;;;;;8.23;2.85;;;14.80;93.40;;;;;;5030691;28;20625;-47
2022/06/13 02:10:04;;;;;;;9.10;2.80;;;14.70;93.60;;;;;;5029900;28;20041;-45
2022/06/13 02:12:32;;;;;;;7.85;2.75;;;14.60;93.70;;;;;;5030798;28;20025;-47
2022/06/13 02:15:08;;;;;;;7.68;2.83;;;14.60;94.00;;;;;;5030435;28;20029;-47
2022/06/13 02:17:43;;;;;;;6.03;3.05;;;14.50;94.20;;;;;;5030458;28;20049;-49
2022/06/13 02:20:27;;;;;;;15.90;3.78;;;14.50;94.60;;;;;;5029862;28;20029;-48
2022/06/13 02:23:00;;;;;;;7.90;2.60;;;14.40;94.70;;;;;;5030027;28;20052;-46
2022/06/13 02:25:55;;;;;;;10.60;3.60;;;14.40;95.10;;;;;;5030061;28;20542;-47
2022/06/13 02:28:29;;;;;;;5.25;3.00;;;14.30;95.50;;;;;;5027871;28;20041;-46
2022/06/13 02:31:00;;;;;;;6.13;2.78;;;14.30;95.80;;;;;;5029763;28;20030;-46
2022/06/13 02:33:38;;;;;;;10.00;3.92;;;14.20;96.30;;;;;;5029911;28;20033;-50
2022/06/13 02:36:16;;;;;;;10.40;3.38;;;14.20;96.70;;;;;;5030090;28;20096;-48
2022/06/13 02:38:49;;;;;;;9.05;3.60;;;14.10;96.90;;;;;;5012513;28;20021;-46
2022/06/13 02:41:19;;;;;;;9.57;3.50;;;14.00;97.30;;;;;;5029448;28;20075;-46
2022/06/13 02:43:51;;;;;;;14.25;4.40;;;14.00;97.50;;;;;;5029998;28;20033;-46
2022/06/13 02:46:24;;;;;;;10.43;3.58;;;14.00;98.00;;;;;;5029969;28;20037;-46
2022/06/13 02:49:01;;;;;;;6.50;3.20;;;14.00;98.70;;;;;;5030022;28;20025;-45
2022/06/13 02:51:48;;;;;;;11.27;4.03;;;13.90;99.10;;;;;;5028116;28;20422;-46
2022/06/13 02:54:26;;;;;;;11.45;3.92;;;13.90;99.40;;;;;;5029309;28;20391;-48
2022/06/13 02:57:24;;;;;;;9.63;3.13;;;13.80;99.70;;;;;;5011370;28;20478;-45
2022/06/13 03:00:17;;;;;;;13.27;4.07;;;13.70;99.90;;;;;;5028161;28;20025;-46
2022/06/13 03:03:07;;;;;;;9.07;3.63;;;13.70;99.90;;;;;;5029860;28;20021;-45
2022/06/13 03:05:44;;;;;;;13.13;4.70;;;13.60;99.90;;;;;;5028654;28;20080;-45
2022/06/13 03:08:48;;;;;;;11.27;3.90;;;13.60;99.90;;;;;;5029517;28;20079;-45
2022/06/13 03:11:32;;;;;;;11.82;4.30;;;13.50;99.90;;;;;;5026908;28;20037;-47
2022/06/13 03:14:13;;;;;;;10.05;4.07;;;13.50;99.90;;;;;;5029796;28;20479;-47
2022/06/13 03:17:33;;;;;;;9.05;3.88;;;13.50;99.90;;;;;;5029987;28;20029;-46
2022/06/13 03:20:16;;;;;;;10.32;4.10;;;13.50;99.90;;;;;;4948002;29;20047;-45
2022/06/13 03:22:50;;;;;;;8.65;3.60;;;13.50;99.90;;;;;;5022192;28;20089;-45
2022/06/13 03:25:30;;;;;;;12.32;4.55;;;13.50;99.90;;;;;;5029441;28;20479;-46
2022/06/13 03:28:09;;;;;;;11.98;4.22;;;13.40;99.90;;;;;;5029479;28;20585;-45
2022/06/13 03:30:41;;;;;;;11.77;3.97;;;13.40;99.90;;;;;;5028740;28;20118;-46
2022/06/13 03:36:00;;;;;;;11.40;4.00;;;13.40;99.90;;;;;;5029402;28;20139;-44
2022/06/13 03:38:35;;;;;;;9.95;4.13;;;13.40;99.90;;;;;;5028795;28;20049;-45
2022/06/13 03:41:02;;;;;;;13.93;4.05;;;13.40;99.90;;;;;;5028120;28;20115;-46
2022/06/13 03:43:44;;;;;;;10.30;4.35;;;13.50;99.90;;;;;;5026685;28;20026;-47
2022/06/13 03:46:24;;;;;;;10.20;4.32;;;13.60;99.90;;;;;;5008185;28;20030;-45
2022/06/13 03:49:09;;;;;;;14.73;4.10;;;13.60;99.90;;;;;;5008632;28;20034;-46
2022/06/13 03:51:41;;;;;;;15.05;5.07;;;13.70;99.90;;;;;;5007367;28;20491;-46
2022/06/13 03:54:36;;;;;;;9.77;4.03;;;13.80;99.90;;;;;;5008798;28;20065;-46
2022/06/13 03:57:28;;;;;;;12.02;4.35;;;13.80;99.90;;;;;;5003625;28;20522;-45
2022/06/13 04:00:09;;;;;;;8.68;3.60;;;13.90;99.90;;;;;;5008481;28;20403;-46
2022/06/13 04:02:37;;;;;;;12.70;4.38;;;13.90;99.90;;;;;;5008963;28;20026;-47
2022/06/13 04:05:03;;;;;;;15.98;4.43;;;13.90;99.90;;;;;;5019625;28;20049;-45
2022/06/13 04:07:33;;;;;;;12.15;4.38;;;13.90;99.90;;;;;;5028579;28;20033;-47
2022/06/13 04:10:15;;;;;;;21.63;5.68;;;13.90;99.90;;;;;;5026506;28;20367;-46
2022/06/13 04:13:06;;;;;;;9.02;3.85;;;13.90;99.90;;;;;;5028636;28;20550;-45
2022/06/13 04:15:59;;;;;;;12.43;4.40;;;13.90;99.90;;;;;;5028416;28;20495;-46
2022/06/13 04:18:42;;;;;;;14.50;4.90;;;14.00;99.90;;;;;;5028476;28;20033;-47
2022/06/13 04:21:17;;;;;;;12.13;4.72;;;14.00;99.90;;;;;;5027770;28;20032;-47
2022/06/13 04:24:05;;;;;;;13.95;5.57;;;14.00;99.90;;;;;;5028581;28;20033;-48
2022/06/13 04:26:44;;;;;;;14.30;5.07;;;14.00;99.90;;;;;;5028470;28;20029;-47
2022/06/13 04:29:34;;;;;;;20.38;4.57;;;14.00;99.90;;;;;;5028638;28;20022;-46
2022/06/13 04:32:05;;;;;;;14.50;4.82;;;14.10;99.90;;;;;;5028362;28;20022;-45
2022/06/13 04:34:37;;;;;;;12.60;4.78;;;14.10;99.90;;;;;;5028339;28;20021;-45
2022/06/13 04:37:05;;;;;;;13.95;5.28;;;14.10;99.90;;;;;;5028735;28;20390;-45
2022/06/13 04:39:33;;;;;;;15.40;5.22;;;14.10;99.90;;;;;;5026986;28;20030;-46
2022/06/13 04:42:02;;;;;;;15.00;5.25;;;14.10;99.90;;;;;;5027321;28;20038;-45
2022/06/13 04:44:30;;;;;;;15.20;5.03;;;14.20;99.90;;;;;;5028378;28;20026;-48
2022/06/13 04:46:57;;;;;;;14.27;4.90;;;14.20;99.90;;;;;;5028247;28;20411;-47
2022/06/13 04:49:26;;;;;;;17.83;5.07;;;14.30;99.90;;;;;;5028209;28;20029;-46
2022/06/13 04:51:54;;;;;;;13.65;4.82;;;14.40;99.90;;;;;;5027951;28;20041;-48
2022/06/13 04:54:37;;;;;;;10.52;4.55;;;14.50;99.90;;;;;;5028011;28;20024;-46
2022/06/13 04:57:03;;;;;;;16.23;5.18;;;14.60;99.90;;;;;;5028435;28;20022;-45
2022/06/13 04:59:30;;;;;;;17.15;5.38;;;14.70;99.90;;;;;;5027911;28;20434;-45
2022/06/13 05:01:57;;;;;;;14.38;4.03;;;14.80;99.90;;;;;;5027711;28;20479;-46
2022/06/13 05:04:30;;;;;;;7.68;4.30;;;14.90;99.90;;;;;;5028122;28;20064;-46
2022/06/13 05:07:14;;;;;;;13.57;4.55;;;14.90;99.90;;;;;;5028312;28;20026;-46
2022/06/13 05:09:52;;;;;;;10.75;4.45;;;15.00;99.90;;;;;;5027420;28;20029;-47
2022/06/13 05:12:51;;;;;;;13.77;4.43;;;15.10;99.90;;;;;;5027964;28;20029;-46
2022/06/13 05:15:30;;;;;;;11.88;3.75;;;15.10;99.90;;;;;;5018714;28;20084;-45
2022/06/13 05:18:28;;;;;;;10.82;4.05;;;15.20;99.60;;;;;;5027829;28;20021;-47
2022/06/13 05:21:15;;;;;;;10.65;3.33;;;15.10;99.50;;;;;;5027257;28;20620;-45
2022/06/13 05:24:06;;;;;;;9.70;3.97;;;15.20;99.80;;;;;;5028596;28;20025;-47
2022/06/13 05:26:31;;;;;;;7.32;3.00;;;15.10;99.10;;;;;;5030739;28;20026;-46
2022/06/13 05:28:59;;;;;;;14.90;4.50;;;15.10;99.40;;;;;;5028514;28;20095;-45
2022/06/13 05:31:26;;;;;;;9.57;3.42;;;15.20;99.60;;;;;;5024115;28;20470;-49
2022/06/13 05:33:53;;;;;;;11.70;3.60;;;15.20;99.30;;;;;;5049142;28;20029;-47
2022/06/13 05:36:21;;;;;;;10.90;3.63;;;15.20;99.10;;;;;;5050045;28;20146;-45
2022/06/13 05:38:54;;;;;;;12.15;4.00;;;15.20;99.40;;;;;;5051310;28;20036;-45
2022/06/13 05:41:20;;;;;;;11.30;3.17;;;15.20;99.30;;;;;;5037681;28;20021;-46
2022/06/13 05:43:46;;;;;;;9.98;4.03;;;15.30;99.50;;;;;;5029976;28;20033;-45
2022/06/13 05:46:29;;;;;;;9.32;4.95;;;15.30;99.50;;;;;;5031160;28;20030;-47
2022/06/13 05:48:55;;;;;;;11.30;4.07;;;15.40;99.90;;;;;;5030540;28;20386;-46
2022/06/13 05:51:20;;;;;;;9.98;4.07;;;15.40;99.90;;;;;;5029629;28;20030;-46
2022/06/13 05:53:46;;;;;;;13.35;4.13;;;15.50;99.90;;;;;;5030612;28;20380;-46
2022/06/13 05:56:12;;;;;;;9.98;4.28;;;15.50;99.50;;;;;;5030371;28;20548;-47
2022/06/13 05:58:38;;;;;;;14.98;4.97;;;15.50;99.60;;;;;;5030386;28;20647;-47
2022/06/13 06:01:05;;;;;;;10.52;4.47;;;15.50;99.70;;;;;;5030043;28;20037;-45
2022/06/13 06:03:31;;;;;;;13.45;4.45;;;15.50;99.50;;;;;;5029456;28;20036;-47
2022/06/13 06:05:58;;;;;;;10.00;4.38;;;15.50;99.80;;;;;;5030300;28;20029;-47
2022/06/13 06:08:26;;;;;;;17.73;4.68;;;15.60;99.90;;;;;;5030344;28;20036;-46
2022/06/13 06:10:56;;;;;;;17.73;4.60;;;15.60;99.90;;;;;;5029528;28;20033;-47
2022/06/13 06:13:22;;;;;;;16.77;4.03;;;15.70;98.80;;;;;;5030034;28;20021;-46
2022/06/13 06:15:49;;;;;;;14.38;4.53;;;15.80;98.80;;;;;;5030059;28;20184;-46
2022/06/13 06:18:16;;;;;;;18.80;4.70;;;15.90;98.50;;;;;;5029138;28;20502;-45
2022/06/13 06:20:42;;;;;;;15.30;4.40;;;16.00;98.60;;;;;;5029822;28;20030;-46
2022/06/13 06:23:08;;;;;;;12.57;4.00;;;16.00;98.20;;;;;;5030226;28;20428;-47
2022/06/13 06:25:34;;;;;;;11.52;4.38;;;16.20;98.30;;;;;;5029094;28;20036;-46
2022/06/13 06:28:00;;;;;;;10.43;3.83;;;16.40;97.90;;;;;;5030457;28;20065;-46
2022/06/13 06:30:27;;;;;;;9.65;3.50;;;16.40;97.60;;;;;;5029304;28;20109;-45
2022/06/13 06:32:53;;;;;;;18.15;4.55;;;16.40;96.80;;;;;;5029993;28;20582;-48
2022/06/13 06:35:20;;;;;;;10.25;4.18;;;16.50;97.10;;;;;;5030094;28;20030;-48
2022/06/13 06:37:48;;;;;;;13.73;3.97;;;16.60;97.10;;;;;;5028939;28;20022;-46
2022/06/13 06:40:16;;;;;;;16.20;4.70;;;16.70;97.10;;;;;;5029655;28;20048;-45
2022/06/13 06:42:41;;;;;;;6.95;3.38;;;16.70;96.20;;;;;;5028381;28;20036;-46
2022/06/13 06:45:08;;;;;;;13.05;4.20;;;16.90;96.90;;;;;;5029613;28;20038;-47
2022/06/13 06:47:35;;;;;;;13.95;3.97;;;17.10;96.30;;;;;;5028128;28;20032;-46
2022/06/13 06:50:00;;;;;;;16.00;3.95;;;17.00;96.00;;;;;;5028837;28;20052;-48
2022/06/13 06:52:26;;;;;;;11.40;3.97;;;17.00;96.40;;;;;;5030311;28;20013;-45
2022/06/13 07:00:20;;;;;;;17.05;4.70;;;17.10;95.20;;;;;;5029252;28;20056;-46
2022/06/13 07:02:46;;;;;;;13.23;4.53;;;17.10;95.40;;;;;;5029628;28;20044;-49
2022/06/13 07:05:13;;;;;;;16.52;4.35;;;17.20;95.20;;;;;;5030074;28;20108;-46
2022/06/13 07:07:38;;;;;;;11.98;4.60;;;17.20;95.30;;;;;;5029511;28;20017;-46
2022/06/13 07:10:04;;;;;;;11.55;3.78;;;17.20;95.60;;;;;;5028675;28;20489;-46
2022/06/13 07:12:30;;;;;;;16.05;4.47;;;17.10;95.20;;;;;;5027960;28;20112;-47
2022/06/13 07:14:55;;;;;;;11.15;4.13;;;17.10;95.70;;;;;;5029655;28;20140;-45
2022/06/13 07:17:22;;;;;;;11.68;4.38;;;17.10;95.10;;;;;;5029514;28;20080;-47
2022/06/13 07:19:47;;;;;;;15.15;4.70;;;17.20;95.00;;;;;;5029200;28;20013;-46
2022/06/13 07:22:17;;;;;;;13.25;4.43;;;17.40;95.00;;;;;;5029403;28;20051;-45
2022/06/13 07:24:43;;;;;;;19.10;4.80;;;17.40;95.10;;;;;;5029119;28;20018;-47
2022/06/13 07:27:09;;;;;;;16.35;4.70;;;17.50;94.70;;;;;;5028796;28;20041;-46
2022/06/13 07:29:37;;;;;;;8.68;4.15;;;17.50;94.70;;;;;;5027839;28;20230;-49
2022/06/13 07:32:07;;;;;;;10.45;3.50;;;17.50;94.10;;;;;;5026773;28;20032;-46
2022/06/13 07:34:34;;;;;;;;;;;17.70;94.00;;;;;;5027670;28;20391;-48
2022/06/13 07:37:01;;;;;;;14.68;4.00;;;17.70;92.80;;;;;;5028458;28;19912;-46
2022/06/13 07:39:27;;;;;;;13.25;4.32;;;17.90;92.90;;;;;;5028113;28;20385;-49
2022/06/13 07:41:53;;;;;;;15.52;4.60;;;18.20;92.30;;;;;;5027320;28;20033;-47
2022/06/13 07:44:22;;;;;;;14.80;3.90;;;18.40;91.60;;;;;;5028462;28;20025;-47
2022/06/13 07:46:50;;;;;;;10.93;3.38;;;18.50;91.80;;;;;;5028062;28;20053;-45
2022/06/13 07:49:16;;;;;;;10.98;3.95;;;18.40;92.30;;;;;;5025536;28;20025;-48
2022/06/13 07:51:42;;;;;;;14.40;4.57;;;18.20;91.90;;;;;;5027969;28;20033;-46
2022/06/13 07:54:07;;;;;;;9.40;4.38;;;18.20;92.60;;;;;;5028258;28;20018;-48
2022/06/13 07:56:35;;;;;;;11.13;3.78;;;18.60;92.50;;;;;;5028095;28;20017;-45
2022/06/13 07:59:01;;;;;;;13.18;3.80;;;18.80;91.40;;;;;;5027095;28;20459;-47
2022/06/13 08:01:27;;;;;;;13.32;3.85;;;19.20;91.70;;;;;;5026193;28;20032;-47
2022/06/13 08:03:54;;;;;;;8.63;3.53;;;19.60;90.20;;;;;;5028311;28;20017;-46
2022/06/13 08:06:20;;;;;;;13.32;4.65;;;19.60;89.40;;;;;;5028302;28;20383;-46
2022/06/13 08:08:46;;;;;;;15.68;4.00;;;19.70;89.30;;;;;;5028072;28;20026;-46
2022/06/13 08:11:17;;;;;;;10.73;4.38;;;19.60;89.70;;;;;;5025078;28;20036;-47
2022/06/13 08:13:43;;;;;;;12.25;3.70;;;20.10;88.30;;;;;;5028083;28;20028;-46
2022/06/13 08:16:09;;;;;;;14.05;3.35;;;20.90;85.70;;;;;;5027953;28;20770;-45
2022/06/13 08:18:36;;;;;;;10.85;3.53;;;21.50;81.00;;;;;;5025596;28;20028;-46
2022/06/13 08:21:02;;;;;;;11.60;3.50;;;22.40;80.10;;;;;;5026202;28;20018;-47
2022/06/13 08:23:27;;;;;;;7.95;3.60;;;23.40;75.70;;;;;;5026575;28;20025;-47
2022/06/13 08:25:53;;;;;;;8.50;3.20;;;23.50;74.00;;;;;;5027298;28;20453;-47
2022/06/13 08:28:19;;;;;;;9.20;3.30;;;23.40;73.20;;;;;;5028155;28;20080;-48
2022/06/13 08:30:58;;;;;;;12.27;3.45;;;23.20;70.70;;;;;;5027540;28;20471;-47
2022/06/13 08:33:23;;;;;;;9.70;3.58;;;22.80;73.10;;;;;;5026500;28;20060;-46
2022/06/13 08:35:50;;;;;;;17.20;4.03;;;21.90;74.10;;;;;;5027786;28;20033;-46
2022/06/13 08:38:16;;;;;;;6.45;3.17;;;21.50;75.60;;;;;;5025388;28;20051;-46
2022/06/13 08:41:38;;;;;;;13.02;3.88;;;21.60;75.00;;;;;;5027162;28;20033;-46
2022/06/13 08:44:18;;;;;;;12.98;3.25;;;21.90;74.50;;;;;;4996455;28;20049;-46
2022/06/13 08:46:54;;;;;;;;;;;21.50;75.30;;;;;;5027248;28;20033;-45
2022/06/13 08:49:33;;;;;;;13.85;4.43;;;21.20;74.50;;;;;;5025348;28;19909;-46
2022/06/13 08:52:26;;;;;;;14.43;3.97;;;20.80;75.50;;;;;;5025612;28;20018;-47
2022/06/13 08:55:17;;;;;;;9.63;3.50;;;20.90;76.50;;;;;;5027489;28;20053;-46
2022/06/13 08:57:50;;;;;;;10.10;3.83;;;20.70;76.20;;;;;;5027086;28;20108;-46
2022/06/13 09:00:22;;;;;;;11.10;3.90;;;20.50;78.30;;;;;;5028667;28;20033;-49
2022/06/13 09:03:01;;;;;;;12.50;3.58;;;20.30;77.60;;;;;;5029315;28;20033;-46
2022/06/13 09:05:54;;;;;;;7.80;3.58;;;19.90;77.80;;;;;;5030634;28;20110;-45
2022/06/13 09:08:41;;;;;;;10.15;2.95;;;20.50;77.40;;;;;;5026145;28;20068;-47
2022/06/13 09:11:19;;;;;;;15.02;3.85;;;21.90;75.50;;;;;;5029939;28;20020;-47
2022/06/13 09:14:16;;;;;;;7.18;3.08;;;24.10;69.80;;;;;;5028673;28;20026;-49
2022/06/13 09:16:51;;;;;;;6.03;3.13;;;24.90;67.70;;;;;;5029497;28;20033;-47
2022/06/13 09:19:19;;;;;;;10.02;3.65;;;25.30;64.40;;;;;;5028013;28;20425;-47
2022/06/13 09:22:08;;;;;;;8.70;3.15;;;26.20;65.40;;;;;;5029608;28;20041;-49
2022/06/13 09:24:52;;;;;;;8.45;3.33;;;25.60;61.40;;;;;;5030954;28;20095;-47
2022/06/13 09:27:22;;;;;;;8.30;3.53;;;25.00;62.70;;;;;;5028752;28;20021;-49
2022/06/13 09:30:04;;;;;;;6.15;2.75;;;23.90;63.60;;;;;;5030169;28;20026;-46
2022/06/13 09:32:53;;;;;;;9.77;3.35;;;23.20;66.60;;;;;;5029923;28;20030;-46
2022/06/13 09:35:20;;;;;;;8.57;2.70;;;22.80;66.70;;;;;;5028736;28;20072;-46
2022/06/13 09:37:53;;;;;;;6.68;2.88;;;22.80;68.10;;;;;;5030936;28;20060;-47
2022/06/13 09:40:23;;;;;;;8.27;3.08;;;22.80;66.50;;;;;;5027899;28;20081;-46
2022/06/13 09:42:59;;;;;;;6.80;2.72;;;23.60;65.80;;;;;;5029414;28;20037;-50
2022/06/13 09:45:34;;;;;;;3.85;2.00;;;25.30;61.70;;;;;;5029562;28;20028;-50
2022/06/13 09:48:20;;;;;;;7.50;2.20;;;26.70;59.50;;;;;;5028632;28;20402;-47
2022/06/13 09:50:54;;;;;;;6.90;2.50;;;27.80;52.80;;;;;;5029791;28;20025;-48
2022/06/13 09:53:31;;;;;;;4.38;1.70;;;27.70;52.80;;;;;;5028609;28;20241;-48
2022/06/13 09:56:22;;;;;;;6.18;2.00;;;27.10;53.30;;;;;;5028202;28;20336;-46
2022/06/13 09:59:14;;;;;;;4.82;2.15;;;26.20;53.80;;;;;;5029298;28;20112;-46
2022/06/13 10:01:43;;;;;;;8.77;2.80;;;25.90;56.40;;;;;;5030207;28;20032;-47
2022/06/13 10:04:16;;;;;;;7.75;2.47;;;26.60;56.40;;;;;;5030409;28;20029;-50
2022/06/13 10:07:18;;;;;;;6.28;2.47;;;26.50;56.90;;;;;;5029833;28;20494;-47
2022/06/13 10:10:04;;;;;;;7.10;2.75;;;26.20;54.30;;;;;;5028403;28;20045;-47
2022/06/13 10:12:51;;;;;;;6.47;2.70;;;26.80;53.50;;;;;;5027652;28;20029;-46
2022/06/13 10:15:48;;;;;;;5.45;2.15;;;27.00;52.10;;;;;;5027864;28;20057;-47
2022/06/13 10:18:23;;;;;;;4.03;1.98;;;25.80;53.80;;;;;;4990216;28;20056;-47
2022/06/13 10:21:00;;;;;;;6.53;2.22;;;24.90;53.40;;;;;;5028874;28;20355;-47
2022/06/13 10:23:56;;;;;;;3.75;2.13;;;23.80;56.30;;;;;;5029577;28;20080;-46
2022/06/13 10:26:41;;;;;;;6.35;2.08;;;22.60;58.30;;;;;;5028581;28;20029;-46
2022/06/13 10:29:25;;;;;;;7.35;2.80;;;21.90;61.10;;;;;;5028505;28;20378;-48
2022/06/13 10:32:02;;;;;;;4.57;2.08;;;21.00;64.30;;;;;;5026650;28;20032;-46
2022/06/13 10:34:54;;;;;;;11.50;3.72;;;21.00;65.80;;;;;;5029302;28;20022;-47
2022/06/13 10:37:29;;;;;;;6.35;2.40;;;22.20;67.00;;;;;;5008239;28;20041;-49
2022/06/13 10:39:58;;;;;;;7.47;2.35;;;23.80;62.90;;;;;;5027008;28;20044;-50
2022/06/13 10:42:26;;;;;;;9.25;2.50;;;24.50;61.80;;;;;;5029291;28;20017;-47
2022/06/13 10:44:52;;;;;;;7.38;2.38;;;24.30;59.20;;;;;;5027378;28;20028;-47
2022/06/13 10:47:36;;;;;;;11.13;2.08;;;23.40;61.10;;;;;;5029668;28;20025;-46
2022/06/13 10:50:12;;;;;;;3.85;1.80;;;22.50;64.30;;;;;;5009687;28;20109;-46
2022/06/13 10:52:43;;;;;;;6.35;1.98;;;21.50;64.40;;;;;;5009710;28;20018;-47
2022/06/13 10:55:13;;;;;;;5.88;2.22;;;21.30;66.30;;;;;;5010247;28;20021;-47
2022/06/13 10:57:48;;;;;;;4.73;1.67;;;22.80;66.30;;;;;;5027284;28;20180;-47
2022/06/13 11:00:24;;;;;;;4.10;1.50;;;24.40;61.10;;;;;;5027446;28;20403;-45
2022/06/13 11:02:53;;;;;;;4.93;1.73;;;25.80;59.10;;;;;;5027353;28;20034;-44
2022/06/13 11:05:23;;;;;;;5.70;1.52;;;26.60;56.10;;;;;;5029478;28;20104;-46
2022/06/13 11:07:55;;;;;;;4.63;1.73;;;26.50;56.30;;;;;;5029420;28;20033;-45
2022/06/13 11:10:36;;;;;;;3.55;1.60;;;25.70;55.90;;;;;;5028687;28;20044;-46
2022/06/13 11:13:13;;;;;;;3.92;1.77;;;24.70;58.90;;;;;;5029496;28;20018;-46
2022/06/13 11:24:40;;;;;;;6.95;1.80;;;20.00;78.30;;;;;;5029553;28;20047;-46
2022/06/13 11:30:32;;;;;;;8.68;2.45;;;18.60;87.50;;;;;;5025825;28;20041;-48
2022/06/13 11:33:19;;;;;;;5.78;2.80;;;18.70;90.00;;;;;;5027753;28;20029;-46
2022/06/13 11:35:59;;;;;;;8.20;2.53;;;18.80;88.30;;;;;;5009272;28;20061;-46
2022/06/13 11:38:29;;;;;;;6.75;2.50;;;18.50;87.50;;;;;;5027532;28;20053;-47
2022/06/13 11:40:58;;;;;;;4.90;2.45;;;18.50;87.80;;;;;;5028376;28;20432;-45
2022/06/13 11:43:36;;;;;;;10.18;2.65;;;18.20;90.10;;;;;;5028772;28;20029;-46
2022/06/13 11:46:07;;;;;;;5.60;2.30;;;18.20;89.50;;;;;;5028538;28;20479;-46
2022/06/13 11:48:33;;;;;;;5.45;2.78;;;18.10;91.30;;;;;;5028401;28;20029;-47
2022/06/13 11:51:02;;;;;;;9.25;3.13;;;18.20;90.90;;;;;;5027700;28;20276;-46
2022/06/13 11:53:38;;;;;;;6.47;2.42;;;19.20;91.60;;;;;;5028491;28;20033;-47
2022/06/13 11:56:11;;;;;;;4.00;2.40;;;20.00;85.50;;;;;;5028407;28;20187;-47
2022/06/13 11:58:41;;;;;;;6.93;2.50;;;20.80;83.20;;;;;;5026937;28;20013;-49
2022/06/13 12:01:30;;;;;;;8.17;2.47;;;21.70;83.30;;;;;;5025601;28;20026;-46
2022/06/13 12:04:16;;;;;;;9.23;3.50;;;22.30;82.10;;;;;;5027297;28;20033;-46
2022/06/13 12:06:47;;;;;;;7.57;2.60;;;22.70;80.40;;;;;;5028127;28;20326;-47
2022/06/13 12:09:30;;;;;;;9.27;2.58;;;22.50;80.30;;;;;;5028172;28;20029;-47
2022/06/13 12:12:00;;;;;;;4.93;1.90;;;22.60;81.10;;;;;;5026572;28;20026;-46
2022/06/13 12:14:26;;;;;;;5.63;1.83;;;22.80;77.20;;;;;;5024412;28;20018;-46
2022/06/13 12:17:07;;;;;;;13.00;2.47;;;22.90;71.60;;;;;;5028235;28;20033;-46
2022/06/13 12:19:47;;;;;;;;;;;22.90;74.00;;;;;;5026669;28;20032;-46
2022/06/13 12:22:40;;;;;;;6.78;2.15;;;23.00;76.40;;;;;;5025654;28;20294;-47
2022/06/13 12:25:38;;;;;;;4.00;2.03;;;23.10;73.30;;;;;;5025929;28;20040;-49
2022/06/13 12:28:12;;;;;;;4.07;1.80;;;22.90;75.20;;;;;;5025235;28;20030;-47
2022/06/13 12:30:38;;;;;;;7.47;2.13;;;23.40;75.40;;;;;;5027086;28;20414;-47
2022/06/13 12:33:21;;;;;;;3.53;1.52;;;23.10;69.70;;;;;;5029765;28;20029;-46
2022/06/13 12:36:08;;;;;;;3.95;1.52;;;23.00;70.00;;;;;;5028544;28;20018;-47
2022/06/13 12:38:39;;;;;;;4.40;1.50;;;22.20;66.80;;;;;;5029551;28;20028;-45
2022/06/13 12:41:28;;;;;;;3.97;1.65;;;21.60;70.00;;;;;;5029610;28;20124;-49
2022/06/13 12:44:04;;;;;;;2.10;1.25;;;21.00;70.70;;;;;;5031922;28;20064;-46
2022/06/13 12:46:56;;;;;;;4.00;1.20;;;20.60;73.60;;;;;;5029041;28;20040;-49
2022/06/13 12:49:59;;;;;;;7.75;1.13;;;19.60;80.50;;;;;;5030481;28;20028;-45
2022/06/13 12:52:50;;;;;;;3.45;1.40;;;18.70;85.30;;;;;;5030354;28;20029;-45
2022/06/13 12:55:40;;;;;;;5.05;1.73;;;17.70;89.20;;;;;;5031539;28;20112;-45
2022/06/13 12:58:12;;;;;;;5.25;1.60;;;17.00;91.40;;;;;;5031924;28;20030;-45
2022/06/13 13:00:57;;;;;;;4.88;1.15;;;16.90;92.40;;;;;;5030731;28;20038;-47
2022/06/13 13:04:16;;;;;;;3.33;1.63;;;16.70;93.30;;;;;;5031631;28;20029;-47
2022/06/13 13:07:06;;;;;;;1.30;1.05;;;16.50;93.70;;;;;;5030412;28;20044;-45
2022/06/13 13:09:56;;;;;;;14.25;1.45;;;16.50;94.80;;;;;;5030808;28;20576;-46
2022/06/13 13:12:55;;;;;;;1.00;0.70;;;17.20;93.10;;;;;;5031576;28;20615;-46
2022/06/13 13:15:44;;;;;;;3.22;1.10;;;17.60;92.00;;;;;;5031483;28;20039;-45
2022/06/13 13:18:38;;;;;;;2.42;1.20;;;17.90;91.00;;;;;;5031935;28;20495;-45
2022/06/13 13:21:23;;;;;;;1.30;0.90;;;18.40;90.70;;;;;;5031127;28;20037;-46
2022/06/13 13:24:14;;;;;;;2.67;0.85;;;19.00;88.60;;;;;;5031587;28;20033;-45
2022/06/13 13:26:55;;;;;;;1.23;1.10;;;19.70;86.50;;;;;;5031407;28;20032;-46
2022/06/13 13:29:46;;;;;;;20.10;11.77;;;19.50;83.80;;;;;;5031458;28;20021;-46
2022/06/13 13:32:26;;;;;;;3.55;1.38;;;19.50;84.10;;;;;;5031513;28;20030;-46
2022/06/13 13:35:05;;;;;;;10.02;3.58;;;19.30;84.70;;;;;;5031691;28;20383;-46
2022/06/13 13:37:42;;;;;;;7.20;1.20;;;19.50;84.10;;;;;;5030118;28;20509;-47
2022/06/13 13:40:20;;;;;;;2.63;1.10;;;19.40;83.70;;;;;;5031032;28;20033;-48
2022/06/13 13:42:59;;;;;;;2.17;1.50;;;19.40;84.40;;;;;;5031535;28;20043;-46
2022/06/13 13:45:43;;;;;;;3.13;1.50;;;19.40;84.00;;;;;;5031198;28;20032;-46
2022/06/13 13:48:29;;;;;;;2.88;1.23;;;19.70;82.50;;;;;;5031389;28;20068;-47
2022/06/13 13:51:04;;;;;;;2.20;1.10;;;20.10;84.70;;;;;;5030605;28;20030;-47